createdAt,value
2023-02-14T00:00:28.210Z,20.98
2023-02-14T00:02:57.773Z,21.70
2023-02-14T00:05:27.487Z,19.52
2023-02-14T00:11:46.813Z,19.95
2023-02-14T00:14:32.942Z,21.98
2023-02-14T00:17:02.919Z,22.65
2023-02-14T00:19:34.655Z,20.20
2023-02-14T00:24:29.632Z,21.55
2023-02-14T00:26:59.144Z,22.85
2023-02-14T00:29:31.655Z,21.88
2023-02-14T00:32:02.629Z,22.17
2023-02-14T00:34:30.022Z,23.58
2023-02-14T00:36:57.339Z,21.65
2023-02-14T00:39:24.600Z,20.60
2023-02-14T00:41:52.129Z,21.33
2023-02-14T00:44:19.459Z,20.75
2023-02-14T00:46:46.769Z,21.27
2023-02-14T00:49:14.114Z,19.45
2023-02-14T00:51:41.510Z,19.08
2023-02-14T00:54:08.825Z,19.08
2023-02-14T00:56:36.312Z,18.70
2023-02-14T00:59:03.610Z,21.25
2023-02-14T01:01:38.932Z,21.17
2023-02-14T01:04:09.300Z,19.65
2023-02-14T01:06:36.781Z,19.23
2023-02-14T01:09:04.666Z,19.30
2023-02-14T01:11:31.916Z,21.23
2023-02-14T01:13:59.915Z,20.50
2023-02-14T01:20:15.565Z,20.00
2023-02-14T01:22:42.842Z,21.33
2023-02-14T01:25:17.661Z,19.13
2023-02-14T01:27:47.029Z,21.65
2023-02-14T01:30:14.935Z,20.13
2023-02-14T01:32:44.467Z,19.30
2023-02-14T01:35:11.774Z,20.10
2023-02-14T01:37:41.558Z,20.85
2023-02-14T01:40:12.270Z,21.25
2023-02-14T01:42:39.890Z,19.50
2023-02-14T01:45:29.906Z,20.55
2023-02-14T01:47:59.912Z,19.65
2023-02-14T01:50:35.805Z,20.27
2023-02-14T01:53:21.402Z,20.05
2023-02-14T01:55:57.068Z,21.67
2023-02-14T01:58:29.650Z,21.23
2023-02-14T02:01:00.217Z,21.85
2023-02-14T02:03:54.436Z,23.00
2023-02-14T02:06:31.796Z,20.77
2023-02-14T02:09:14.138Z,20.07
2023-02-14T02:11:42.805Z,20.38
2023-02-14T02:18:02.198Z,19.50
2023-02-14T02:20:48.310Z,21.73
2023-02-14T02:23:53.422Z,23.67
2023-02-14T02:26:51.871Z,22.88
2023-02-14T02:29:24.994Z,22.43
2023-02-14T02:32:07.776Z,22.97
2023-02-14T02:35:14.154Z,25.37
2023-02-14T02:38:20.608Z,23.63
2023-02-14T02:41:32.120Z,21.90
2023-02-14T02:44:20.782Z,23.40
2023-02-14T02:47:07.401Z,24.80
2023-02-14T02:50:00.942Z,26.57
2023-02-14T02:53:03.615Z,26.13
2023-02-14T02:56:20.216Z,27.70
2023-02-14T02:59:04.922Z,24.30
2023-02-14T03:01:39.671Z,26.53
2023-02-14T03:04:29.515Z,30.80
2023-02-14T03:07:00.096Z,38.30
2023-02-14T03:09:27.291Z,40.23
2023-02-14T03:12:28.142Z,30.17
2023-02-14T03:15:00.465Z,30.40
2023-02-14T03:17:52.745Z,30.13
2023-02-14T03:20:41.623Z,28.10
2023-02-14T03:23:23.405Z,29.60
2023-02-14T03:25:56.294Z,29.60
2023-02-14T03:32:41.519Z,30.23
2023-02-14T03:35:29.457Z,32.47
2023-02-14T03:38:21.782Z,33.30
2023-02-14T03:41:00.486Z,38.57
2023-02-14T03:43:34.374Z,33.90
2023-02-14T03:46:16.652Z,31.93
2023-02-14T03:48:48.356Z,33.43
2023-02-14T03:51:18.543Z,29.02
2023-02-14T03:53:53.838Z,35.10
2023-02-14T03:56:34.649Z,35.78
2023-02-14T03:59:13.606Z,34.05
2023-02-14T04:01:55.585Z,47.03
2023-02-14T04:04:27.055Z,42.92
2023-02-14T04:06:54.913Z,45.05
2023-02-14T04:09:22.259Z,56.53
2023-02-14T04:11:50.549Z,49.55
2023-02-14T04:14:22.743Z,51.78
2023-02-14T04:17:08.439Z,41.83
2023-02-14T04:19:35.892Z,44.10
2023-02-14T04:22:03.179Z,42.17
2023-02-14T04:24:35.919Z,43.17
2023-02-14T04:27:12.364Z,41.23
2023-02-14T04:29:44.048Z,45.13
2023-02-14T04:32:17.788Z,42.58
2023-02-14T04:34:45.602Z,41.33
2023-02-14T04:37:21.337Z,40.97
2023-02-14T04:39:51.315Z,37.20
2023-02-14T04:42:18.600Z,42.97
2023-02-14T04:44:45.886Z,48.20
2023-02-14T04:47:14.354Z,32.37
2023-02-14T04:49:41.709Z,36.28
2023-02-14T04:52:09.486Z,49.30
2023-02-14T04:54:36.777Z,49.90
2023-02-14T04:57:04.304Z,34.87
2023-02-14T04:59:34.154Z,36.90
2023-02-14T05:02:01.530Z,32.57
2023-02-14T05:04:28.826Z,42.33
2023-02-14T05:06:56.077Z,35.83
2023-02-14T05:09:23.435Z,42.17
2023-02-14T05:11:50.761Z,41.20
2023-02-14T05:14:18.031Z,42.97
2023-02-14T05:16:47.834Z,35.67
2023-02-14T05:19:15.125Z,29.90
2023-02-14T05:21:44.740Z,28.67
2023-02-14T05:24:12.075Z,29.07
2023-02-14T05:26:40.479Z,26.03
2023-02-14T05:29:07.887Z,27.33
2023-02-14T05:31:37.908Z,33.15
2023-02-14T05:34:07.926Z,26.87
2023-02-14T05:36:35.246Z,27.10
2023-02-14T05:39:02.543Z,27.03
2023-02-14T05:41:30.085Z,30.47
2023-02-14T05:43:59.630Z,29.20
2023-02-14T05:46:26.975Z,28.73
2023-02-14T05:48:54.357Z,40.47
2023-02-14T05:51:24.138Z,32.87
2023-02-14T05:53:51.482Z,51.30
2023-02-14T05:56:18.795Z,47.23
2023-02-14T05:58:46.106Z,32.03
2023-02-14T06:01:13.537Z,28.23
2023-02-14T06:03:40.834Z,28.13
2023-02-14T06:06:08.224Z,35.17
2023-02-14T06:08:38.017Z,40.37
2023-02-14T06:11:07.752Z,47.10
2023-02-14T06:13:41.485Z,30.17
2023-02-14T06:16:08.909Z,37.10
2023-02-14T06:18:36.374Z,32.63
2023-02-14T06:21:03.887Z,46.83
2023-02-14T06:23:35.839Z,31.35
2023-02-14T06:26:03.778Z,34.93
2023-02-14T06:28:31.104Z,30.50
2023-02-14T06:30:58.834Z,36.27
2023-02-14T06:33:29.017Z,38.47
2023-02-14T06:35:59.154Z,33.27
2023-02-14T06:38:28.576Z,36.80
2023-02-14T06:41:02.469Z,39.17
2023-02-14T06:43:29.977Z,33.87
2023-02-14T06:45:57.325Z,27.20
2023-02-14T06:48:24.641Z,25.20
2023-02-14T06:50:54.407Z,29.90
2023-02-14T06:53:22.018Z,23.08
2023-02-14T06:55:54.084Z,28.53
2023-02-14T06:58:21.489Z,25.27
2023-02-14T07:00:48.794Z,24.77
2023-02-14T07:03:16.381Z,22.60
2023-02-14T07:05:45.225Z,24.27
2023-02-14T07:08:16.069Z,23.07
2023-02-14T07:10:45.761Z,16.73
2023-02-14T07:13:13.403Z,20.58
2023-02-14T07:15:42.963Z,20.70
2023-02-14T07:18:12.818Z,21.98
2023-02-14T07:20:42.605Z,21.10
2023-02-14T07:23:12.272Z,18.55
2023-02-14T07:25:40.734Z,22.73
2023-02-14T07:28:10.441Z,21.43
2023-02-14T07:30:40.368Z,21.83
2023-02-14T07:33:07.748Z,21.23
2023-02-14T07:35:35.592Z,22.87
2023-02-14T07:38:02.840Z,20.10
2023-02-14T07:40:30.187Z,30.10
2023-02-14T07:42:59.061Z,31.13
2023-02-14T07:45:27.151Z,23.80
2023-02-14T07:48:02.017Z,28.80
2023-02-14T07:50:29.466Z,24.50
2023-02-14T07:52:57.232Z,29.95
2023-02-14T07:55:27.490Z,29.00
2023-02-14T07:57:57.149Z,32.42
2023-02-14T08:00:24.512Z,26.17
2023-02-14T08:02:51.791Z,39.90
2023-02-14T08:05:21.832Z,41.80
2023-02-14T08:07:50.507Z,24.83
2023-02-14T08:10:17.914Z,27.27
2023-02-14T08:13:11.522Z,39.63
2023-02-14T08:15:57.584Z,27.35
2023-02-14T08:18:29.266Z,22.15
2023-02-14T08:20:56.985Z,22.08
2023-02-14T08:23:24.654Z,28.70
2023-02-14T08:25:55.585Z,25.52
2023-02-14T08:28:23.515Z,21.65
2023-02-14T08:30:53.902Z,21.30
2023-02-14T08:33:24.285Z,22.80
2023-02-14T08:35:52.290Z,25.52
2023-02-14T08:38:19.854Z,19.10
2023-02-14T08:40:47.427Z,21.02
2023-02-14T08:43:15.076Z,22.08
2023-02-14T08:45:42.543Z,21.20
2023-02-14T08:48:11.766Z,23.23
2023-02-14T08:50:40.057Z,22.27
2023-02-14T08:53:09.452Z,26.45
2023-02-14T08:55:36.956Z,22.90
2023-02-14T08:58:04.939Z,19.67
2023-02-14T09:00:33.476Z,22.15
2023-02-14T09:03:05.320Z,21.77
2023-02-14T09:08:04.734Z,23.67
2023-02-14T09:10:34.401Z,20.98
2023-02-14T09:13:04.218Z,20.25
2023-02-14T09:15:33.776Z,18.77
2023-02-14T09:18:05.723Z,18.55
2023-02-14T09:20:35.864Z,20.45
2023-02-14T09:23:05.596Z,19.92
2023-02-14T09:25:35.752Z,20.58
2023-02-14T09:28:03.465Z,19.63
2023-02-14T09:30:30.853Z,18.58
2023-02-14T09:32:58.255Z,18.35
2023-02-14T09:35:25.511Z,18.98
2023-02-14T09:38:11.573Z,17.60
2023-02-14T09:40:38.926Z,18.23
2023-02-14T09:43:30.756Z,18.17
2023-02-14T09:46:02.454Z,19.42
2023-02-14T09:51:17.732Z,19.40
2023-02-14T09:53:49.668Z,20.73
2023-02-14T09:56:25.408Z,22.10
2023-02-14T09:59:01.614Z,19.02
2023-02-14T10:01:34.478Z,19.40
2023-02-14T10:04:27.410Z,19.35
2023-02-14T10:07:01.016Z,22.52
2023-02-14T10:10:05.838Z,21.40
2023-02-14T10:13:02.109Z,23.52
2023-02-14T10:15:34.754Z,21.63
2023-02-14T10:18:05.567Z,21.38
2023-02-14T10:20:37.748Z,24.90
2023-02-14T10:23:09.473Z,23.40
2023-02-14T10:25:52.789Z,22.10
2023-02-14T10:28:30.654Z,24.63
2023-02-14T10:31:04.671Z,21.20
2023-02-14T10:33:40.314Z,21.73
2023-02-14T10:36:29.990Z,21.88
2023-02-14T10:39:07.034Z,21.35
2023-02-14T10:41:49.318Z,21.25
2023-02-14T10:44:51.520Z,21.02
2023-02-14T10:49:59.771Z,20.33
2023-02-14T10:52:53.274Z,21.95
2023-02-14T10:55:33.071Z,21.42
2023-02-14T10:58:38.745Z,22.17
2023-02-14T11:01:12.302Z,23.13
2023-02-14T11:03:45.138Z,24.48
2023-02-14T11:06:12.729Z,24.35
2023-02-14T11:08:41.477Z,21.98
2023-02-14T11:11:37.581Z,23.92
2023-02-14T11:14:22.154Z,23.70
2023-02-14T11:16:52.100Z,22.83
2023-02-14T11:19:28.506Z,23.50
2023-02-14T11:22:10.300Z,24.65
2023-02-14T11:27:11.765Z,22.67
2023-02-14T11:29:39.041Z,22.88
2023-02-14T11:32:22.775Z,22.80
2023-02-14T11:35:03.044Z,24.25
2023-02-14T11:37:37.127Z,22.77
2023-02-14T11:40:31.384Z,22.27
2023-02-14T11:43:14.575Z,22.52
2023-02-14T11:45:44.224Z,24.27
2023-02-14T11:48:37.366Z,23.98
2023-02-14T11:51:15.772Z,23.35
2023-02-14T11:53:47.608Z,24.05
2023-02-14T11:58:45.473Z,24.20
2023-02-14T12:01:22.426Z,27.88
2023-02-14T12:03:51.063Z,25.40
2023-02-14T12:06:26.678Z,25.58
2023-02-14T12:09:12.799Z,26.42
2023-02-14T12:11:40.508Z,25.08
2023-02-14T12:14:21.708Z,25.55
2023-02-14T12:17:03.330Z,25.58
2023-02-14T12:19:55.376Z,26.83
2023-02-14T12:25:16.787Z,26.30
2023-02-14T12:27:51.153Z,26.25
2023-02-14T12:30:19.778Z,27.63
2023-02-14T12:32:51.709Z,26.27
2023-02-14T12:35:34.996Z,24.70
2023-02-14T12:38:13.218Z,24.55
2023-02-14T12:41:20.041Z,28.58
2023-02-14T12:43:55.956Z,27.65
2023-02-14T12:46:31.944Z,30.77
2023-02-14T12:49:07.814Z,26.55
2023-02-14T12:51:52.450Z,31.73
2023-02-14T12:55:20.053Z,31.27
2023-02-14T12:57:59.871Z,27.70
2023-02-14T13:00:52.334Z,29.48
2023-02-14T13:03:40.422Z,28.92
2023-02-14T13:06:34.266Z,27.33
2023-02-14T13:09:01.636Z,28.45
2023-02-14T13:11:50.705Z,29.58
2023-02-14T13:14:20.948Z,30.45
2023-02-14T13:17:02.019Z,30.38
2023-02-14T13:20:39.069Z,27.65
2023-02-14T13:23:16.377Z,28.98
2023-02-14T13:25:54.501Z,28.65
2023-02-14T13:28:25.577Z,29.77
2023-02-14T13:30:54.882Z,31.25
2023-02-14T13:33:37.096Z,29.27
2023-02-14T13:36:10.242Z,28.73
2023-02-14T13:38:45.781Z,28.58
2023-02-14T13:41:15.245Z,29.17
2023-02-14T13:43:58.688Z,30.02
2023-02-14T13:46:32.088Z,31.40
2023-02-14T13:49:07.521Z,28.45
2023-02-14T13:52:05.618Z,30.52
2023-02-14T13:54:32.877Z,27.75
2023-02-14T13:57:36.807Z,28.10
2023-02-14T14:00:19.503Z,30.85
2023-02-14T14:02:54.648Z,31.95
2023-02-14T14:05:32.494Z,28.10
2023-02-14T14:08:18.256Z,28.48
2023-02-14T14:10:54.537Z,31.70
2023-02-14T14:13:40.325Z,30.00
2023-02-14T14:16:28.837Z,27.73
2023-02-14T14:19:17.143Z,31.30
2023-02-14T14:22:00.845Z,24.42
2023-02-14T14:24:33.465Z,26.30
2023-02-14T14:27:22.793Z,29.75
2023-02-14T14:29:58.563Z,30.48
2023-02-14T14:32:32.167Z,30.92
2023-02-14T14:35:04.573Z,30.25
2023-02-14T14:37:38.654Z,29.42
2023-02-14T14:40:08.404Z,34.65
2023-02-14T14:42:40.208Z,36.90
2023-02-14T14:47:44.353Z,32.88
2023-02-14T14:50:20.047Z,30.85
2023-02-14T14:52:50.005Z,33.38
2023-02-14T14:55:21.766Z,34.35
2023-02-14T15:00:30.484Z,32.63
2023-02-14T15:03:01.296Z,32.25
2023-02-14T15:05:32.730Z,36.57
2023-02-14T15:08:16.564Z,35.53
2023-02-14T15:10:47.396Z,34.72
2023-02-14T15:13:35.967Z,36.13
2023-02-14T15:16:05.867Z,34.13
2023-02-14T15:18:36.182Z,37.30
2023-02-14T15:21:07.916Z,34.90
2023-02-14T15:23:37.857Z,34.05
2023-02-14T15:26:05.347Z,34.05
2023-02-14T15:28:35.462Z,35.40
2023-02-14T15:31:07.775Z,41.03
2023-02-14T15:33:36.087Z,35.03
2023-02-14T15:36:08.078Z,37.00
2023-02-14T15:38:41.000Z,36.45
2023-02-14T15:41:16.686Z,39.33
2023-02-14T15:43:44.243Z,33.90
2023-02-14T15:46:36.199Z,36.97
2023-02-14T15:49:12.505Z,35.58
2023-02-14T15:51:41.341Z,39.53
2023-02-14T15:54:21.657Z,42.70
2023-02-14T15:56:54.461Z,39.78
2023-02-14T15:59:29.743Z,37.03
2023-02-14T16:01:58.432Z,40.33
2023-02-14T16:04:33.863Z,45.22
2023-02-14T16:07:26.623Z,39.80
2023-02-14T16:10:28.990Z,40.92
2023-02-14T16:12:59.241Z,41.20
2023-02-14T16:15:32.548Z,39.45
2023-02-14T16:18:06.888Z,43.03
2023-02-14T16:20:47.102Z,43.53
2023-02-14T16:23:24.425Z,43.33
2023-02-14T16:25:54.754Z,39.38
2023-02-14T16:28:22.342Z,43.80
2023-02-14T16:30:55.719Z,46.60
2023-02-14T16:33:26.868Z,41.30
2023-02-14T16:35:55.011Z,39.30
2023-02-14T16:38:22.646Z,40.75
2023-02-14T16:40:54.947Z,38.40
2023-02-14T16:43:22.266Z,43.42
2023-02-14T16:45:49.718Z,39.65
2023-02-14T16:48:17.071Z,40.40
2023-02-14T16:50:46.324Z,39.40
2023-02-14T16:53:28.864Z,43.00
2023-02-14T16:55:57.649Z,55.25
2023-02-14T16:58:31.588Z,47.53
2023-02-14T17:01:01.583Z,43.83
2023-02-14T17:03:31.385Z,42.35
2023-02-14T17:06:02.996Z,38.55
2023-02-14T17:08:31.104Z,35.13
2023-02-14T17:11:02.078Z,37.05
2023-02-14T17:13:39.249Z,51.17
2023-02-14T17:16:11.092Z,44.40
2023-02-14T17:18:39.465Z,37.45
2023-02-14T17:21:06.818Z,42.92
2023-02-14T17:23:36.412Z,33.33
2023-02-14T17:26:03.935Z,34.85
2023-02-14T17:28:31.182Z,30.50
2023-02-14T17:31:00.706Z,34.10
2023-02-14T17:33:30.421Z,29.85
2023-02-14T17:36:10.130Z,33.45
2023-02-14T17:38:43.429Z,33.03
2023-02-14T17:41:22.388Z,29.92
2023-02-14T17:43:50.766Z,47.15
2023-02-14T17:46:18.708Z,29.05
2023-02-14T17:48:49.160Z,30.02
2023-02-14T17:51:18.051Z,24.55
2023-02-14T17:53:45.370Z,28.75
2023-02-14T17:56:23.803Z,33.47
2023-02-14T17:58:55.035Z,26.90
2023-02-14T18:01:27.991Z,24.17
2023-02-14T18:03:57.962Z,26.27
2023-02-14T18:06:26.694Z,34.95
2023-02-14T18:08:59.295Z,28.45
2023-02-14T18:11:27.998Z,28.25
2023-02-14T18:13:59.684Z,26.88
2023-02-14T18:16:27.017Z,29.02
2023-02-14T18:18:55.056Z,32.25
2023-02-14T18:21:24.527Z,24.77
2023-02-14T18:23:52.066Z,24.55
2023-02-14T18:26:19.804Z,28.23
2023-02-14T18:28:47.238Z,24.80
2023-02-14T18:31:18.028Z,25.17
2023-02-14T18:33:46.821Z,27.43
2023-02-14T18:36:21.311Z,25.23
2023-02-14T18:38:49.176Z,30.10
2023-02-14T18:41:19.014Z,24.17
2023-02-14T18:43:49.162Z,31.13
2023-02-14T18:46:22.605Z,23.15
2023-02-14T18:48:50.866Z,24.95
2023-02-14T18:51:21.474Z,21.17
2023-02-14T18:53:52.273Z,26.90
2023-02-14T18:56:22.107Z,29.33
2023-02-14T18:58:52.858Z,23.90
2023-02-14T19:01:25.105Z,23.75
2023-02-14T19:03:54.893Z,25.23
2023-02-14T19:06:24.964Z,21.95
2023-02-14T19:08:52.368Z,23.20
2023-02-14T19:11:26.156Z,28.13
2023-02-14T19:13:59.509Z,24.23
2023-02-14T19:16:34.160Z,21.45
2023-02-14T19:19:03.891Z,22.42
2023-02-14T19:21:35.026Z,25.20
2023-02-14T19:24:03.978Z,24.38
2023-02-14T19:26:37.653Z,28.48
2023-02-14T19:29:08.365Z,25.00
2023-02-14T19:31:38.167Z,29.17
2023-02-14T19:34:06.663Z,26.88
2023-02-14T19:36:37.534Z,25.38
2023-02-14T19:39:05.542Z,28.20
2023-02-14T19:41:35.237Z,30.92
2023-02-14T19:44:04.977Z,25.08
2023-02-14T19:46:33.171Z,25.85
2023-02-14T19:49:01.797Z,22.90
2023-02-14T19:51:31.559Z,21.77
2023-02-14T19:54:03.112Z,24.95
2023-02-14T19:56:36.442Z,25.30
2023-02-14T19:59:09.051Z,23.80
2023-02-14T20:01:39.630Z,26.27
2023-02-14T20:04:12.129Z,23.80
2023-02-14T20:06:42.475Z,35.08
2023-02-14T20:09:09.863Z,30.63
2023-02-14T20:11:51.515Z,27.83
2023-02-14T20:14:22.351Z,22.88
2023-02-14T20:16:50.428Z,27.90
2023-02-14T20:19:21.306Z,25.83
2023-02-14T20:21:50.555Z,32.70
2023-02-14T20:24:21.650Z,26.88
2023-02-14T20:26:52.090Z,25.20
2023-02-14T20:29:20.432Z,30.33
2023-02-14T20:31:53.125Z,25.83
2023-02-14T20:34:20.949Z,39.92
2023-02-14T20:36:55.645Z,29.10
2023-02-14T20:39:29.172Z,25.70
2023-02-14T20:41:56.686Z,28.42
2023-02-14T20:44:26.478Z,30.20
2023-02-14T20:46:57.283Z,25.45
2023-02-14T20:49:28.894Z,32.07
2023-02-14T20:51:56.873Z,26.85
2023-02-14T20:54:26.702Z,31.50
2023-02-14T20:56:54.539Z,27.58
2023-02-14T20:59:27.103Z,31.60
2023-02-14T21:01:55.945Z,27.23
2023-02-14T21:04:25.784Z,26.20
2023-02-14T21:06:57.652Z,42.95
2023-02-14T21:09:28.290Z,27.55
2023-02-14T21:11:55.680Z,32.33
2023-02-14T21:14:23.007Z,27.90
2023-02-14T21:16:52.551Z,27.50
2023-02-14T21:19:19.847Z,29.27
2023-02-14T21:21:52.231Z,25.77
2023-02-14T21:24:21.722Z,26.17
2023-02-14T21:26:49.086Z,30.98
2023-02-14T21:29:18.759Z,29.67
2023-02-14T21:31:46.070Z,26.92
2023-02-14T21:34:15.579Z,29.17
2023-02-14T21:36:45.378Z,34.25
2023-02-14T21:39:13.102Z,41.83
2023-02-14T21:41:45.094Z,31.23
2023-02-14T21:44:34.853Z,34.92
2023-02-14T21:47:02.197Z,34.33
2023-02-14T21:49:48.019Z,37.70
2023-02-14T21:52:15.324Z,33.85
2023-02-14T21:54:43.049Z,26.92
2023-02-14T21:57:12.707Z,32.10
2023-02-14T21:59:40.381Z,49.95
2023-02-14T22:02:08.162Z,32.28
2023-02-14T22:04:38.164Z,28.20
2023-02-14T22:07:05.697Z,31.10
2023-02-14T22:09:33.080Z,29.80
2023-02-14T22:12:00.460Z,30.40
2023-02-14T22:14:30.137Z,32.75
2023-02-14T22:16:59.659Z,34.03
2023-02-14T22:19:29.303Z,30.60
2023-02-14T22:22:01.402Z,32.20
2023-02-14T22:24:28.800Z,42.55
2023-02-14T22:26:56.054Z,32.35
2023-02-14T22:29:23.332Z,33.22
2023-02-14T22:31:50.808Z,35.23
2023-02-14T22:34:20.510Z,36.22
2023-02-14T22:36:51.201Z,30.67
2023-02-14T22:39:18.689Z,33.63
2023-02-14T22:41:46.615Z,29.00
2023-02-14T22:44:14.183Z,23.73
2023-02-14T22:46:42.095Z,23.98
2023-02-14T22:49:12.398Z,24.07
2023-02-14T22:51:43.149Z,24.92
2023-02-14T22:54:15.990Z,23.87
2023-02-14T22:56:45.706Z,25.10
2023-02-14T22:59:21.504Z,20.95
2023-02-14T23:01:50.124Z,23.50
2023-02-14T23:04:19.340Z,23.57
2023-02-14T23:06:52.553Z,25.47
2023-02-14T23:09:20.367Z,21.10
2023-02-14T23:11:48.061Z,23.02
2023-02-14T23:14:35.515Z,23.60
2023-02-14T23:17:16.056Z,22.20
2023-02-14T23:20:03.243Z,24.70
2023-02-14T23:22:37.504Z,21.20
2023-02-14T23:25:08.272Z,26.90
2023-02-14T23:27:38.683Z,23.48
2023-02-14T23:30:08.066Z,30.13
2023-02-14T23:32:35.768Z,25.63
2023-02-14T23:35:03.216Z,21.60
2023-02-14T23:37:30.640Z,26.27
2023-02-14T23:40:00.171Z,22.95
2023-02-14T23:42:28.238Z,22.42
2023-02-14T23:45:15.543Z,24.43
2023-02-14T23:47:45.042Z,23.63
2023-02-14T23:50:12.577Z,20.23
2023-02-14T23:52:42.388Z,24.97
2023-02-14T23:55:09.760Z,26.90
2023-02-14T23:57:37.602Z,29.73
